sensor_id;sensor_type;location;lat;lon;timestamp;pressure;altitude;pressure_sealevel;temperature;humidity
77147;BME280;66121;52.584;9.694;2023-03-12T00:00:38;100864.16;;;-0.52;73.59
77147;BME280;66121;52.584;9.694;2023-03-12T00:03:04;100863.19;;;-0.70;75.01
77147;BME280;66121;52.584;9.694;2023-03-12T00:05:29;100868.63;;;-0.70;74.11
77147;BME280;66121;52.584;9.694;2023-03-12T00:07:55;100859.78;;;-0.76;75.37
77147;BME280;66121;52.584;9.694;2023-03-12T00:10:24;100858.66;;;-0.61;75.47
77147;BME280;66121;52.584;9.694;2023-03-12T00:12:49;100861.63;;;-0.49;75.79
77147;BME280;66121;52.584;9.694;2023-03-12T00:15:14;100864.88;;;-0.25;73.71
77147;BME280;66121;52.584;9.694;2023-03-12T00:17:40;100855.56;;;-0.32;73.90
77147;BME280;66121;52.584;9.694;2023-03-12T00:20:05;100864.97;;;-0.30;74.70
77147;BME280;66121;52.584;9.694;2023-03-12T00:22:31;100859.63;;;-0.43;75.01
77147;BME280;66121;52.584;9.694;2023-03-12T00:24:57;100863.31;;;-0.39;73.51
77147;BME280;66121;52.584;9.694;2023-03-12T00:27:23;100865.53;;;-0.41;74.02
77147;BME280;66121;52.584;9.694;2023-03-12T00:29:49;100864.34;;;-0.49;74.80
77147;BME280;66121;52.584;9.694;2023-03-12T00:32:15;100856.59;;;-0.42;74.50
77147;BME280;66121;52.584;9.694;2023-03-12T00:34:40;100861.63;;;-0.49;73.88
77147;BME280;66121;52.584;9.694;2023-03-12T00:37:05;100865.47;;;-0.63;75.66
77147;BME280;66121;52.584;9.694;2023-03-12T00:39:32;100859.41;;;-0.83;75.13
77147;BME280;66121;52.584;9.694;2023-03-12T00:41:58;100866.22;;;-0.99;75.81
77147;BME280;66121;52.584;9.694;2023-03-12T00:44:23;100864.63;;;-1.00;75.02
77147;BME280;66121;52.584;9.694;2023-03-12T00:46:48;100855.31;;;-1.07;76.65
77147;BME280;66121;52.584;9.694;2023-03-12T00:49:14;100860.63;;;-1.16;76.47
77147;BME280;66121;52.584;9.694;2023-03-12T00:51:39;100854.09;;;-1.28;77.09
77147;BME280;66121;52.584;9.694;2023-03-12T00:54:04;100852.88;;;-1.36;76.72
77147;BME280;66121;52.584;9.694;2023-03-12T00:56:31;100853.19;;;-1.38;77.05
77147;BME280;66121;52.584;9.694;2023-03-12T00:58:56;100842.75;;;-1.44;77.84
77147;BME280;66121;52.584;9.694;2023-03-12T01:01:22;100853.28;;;-1.43;77.82
77147;BME280;66121;52.584;9.694;2023-03-12T01:03:48;100846.56;;;-1.45;77.42
77147;BME280;66121;52.584;9.694;2023-03-12T01:06:15;100831.50;;;-1.65;76.43
77147;BME280;66121;52.584;9.694;2023-03-12T01:08:40;100843.19;;;-1.69;78.09
77147;BME280;66121;52.584;9.694;2023-03-12T01:11:06;100848.84;;;-1.66;79.76
77147;BME280;66121;52.584;9.694;2023-03-12T01:13:31;100851.22;;;-1.64;79.87
77147;BME280;66121;52.584;9.694;2023-03-12T01:15:56;100841.91;;;-1.72;78.79
77147;BME280;66121;52.584;9.694;2023-03-12T01:18:22;100846.22;;;-1.71;79.78
77147;BME280;66121;52.584;9.694;2023-03-12T01:20:47;100847.63;;;-1.73;79.76
77147;BME280;66121;52.584;9.694;2023-03-12T01:23:13;100848.44;;;-1.73;78.71
77147;BME280;66121;52.584;9.694;2023-03-12T01:25:39;100838.88;;;-1.84;78.61
77147;BME280;66121;52.584;9.694;2023-03-12T01:28:05;100836.66;;;-1.96;79.28
77147;BME280;66121;52.584;9.694;2023-03-12T01:30:30;100841.81;;;-1.99;80.68
77147;BME280;66121;52.584;9.694;2023-03-12T01:32:56;100836.59;;;-2.09;79.70
77147;BME280;66121;52.584;9.694;2023-03-12T01:35:21;100834.09;;;-2.06;79.81
77147;BME280;66121;52.584;9.694;2023-03-12T01:37:46;100835.03;;;-1.97;79.75
77147;BME280;66121;52.584;9.694;2023-03-12T01:40:17;100841.41;;;-2.06;80.29
77147;BME280;66121;52.584;9.694;2023-03-12T01:42:43;100836.31;;;-2.08;80.71
77147;BME280;66121;52.584;9.694;2023-03-12T01:48:17;100837.97;;;-2.12;80.83
77147;BME280;66121;52.584;9.694;2023-03-12T01:50:43;100835.00;;;-2.10;79.73
77147;BME280;66121;52.584;9.694;2023-03-12T01:53:09;100838.13;;;-2.03;80.59
77147;BME280;66121;52.584;9.694;2023-03-12T01:55:34;100829.09;;;-2.12;79.44
77147;BME280;66121;52.584;9.694;2023-03-12T01:58:00;100829.72;;;-2.02;79.99
77147;BME280;66121;52.584;9.694;2023-03-12T02:00:26;100826.97;;;-1.83;78.75
77147;BME280;66121;52.584;9.694;2023-03-12T02:02:53;100828.63;;;-1.87;78.94
77147;BME280;66121;52.584;9.694;2023-03-12T02:05:37;100818.28;;;-1.66;78.21
77147;BME280;66121;52.584;9.694;2023-03-12T02:08:09;100820.50;;;-1.55;77.74
77147;BME280;66121;52.584;9.694;2023-03-12T02:10:34;100818.91;;;-1.56;77.67
77147;BME280;66121;52.584;9.694;2023-03-12T02:13:00;100817.09;;;-1.60;77.59
77147;BME280;66121;52.584;9.694;2023-03-12T02:15:25;100825.31;;;-1.65;76.29
77147;BME280;66121;52.584;9.694;2023-03-12T02:17:52;100825.22;;;-1.60;77.30
77147;BME280;66121;52.584;9.694;2023-03-12T02:20:27;100822.88;;;-1.67;77.02
77147;BME280;66121;52.584;9.694;2023-03-12T02:23:34;100824.34;;;-1.74;78.51
77147;BME280;66121;52.584;9.694;2023-03-12T02:26:03;100824.75;;;-1.81;78.83
77147;BME280;66121;52.584;9.694;2023-03-12T02:28:29;100817.25;;;-1.84;78.48
77147;BME280;66121;52.584;9.694;2023-03-12T02:30:59;100823.53;;;-1.88;77.81
77147;BME280;66121;52.584;9.694;2023-03-12T02:33:26;100827.63;;;-1.91;78.58
77147;BME280;66121;52.584;9.694;2023-03-12T02:35:51;100825.84;;;-1.96;79.84
77147;BME280;66121;52.584;9.694;2023-03-12T02:38:46;100837.31;;;-2.04;79.61
77147;BME280;66121;52.584;9.694;2023-03-12T02:41:26;100832.88;;;-2.13;79.21
77147;BME280;66121;52.584;9.694;2023-03-12T02:44:13;100824.91;;;-2.05;79.53
77147;BME280;66121;52.584;9.694;2023-03-12T02:46:46;100827.81;;;-2.01;79.48
77147;BME280;66121;52.584;9.694;2023-03-12T02:49:11;100832.00;;;-2.09;78.91
77147;BME280;66121;52.584;9.694;2023-03-12T02:51:38;100837.22;;;-2.12;79.64
77147;BME280;66121;52.584;9.694;2023-03-12T02:54:04;100833.28;;;-2.20;79.60
77147;BME280;66121;52.584;9.694;2023-03-12T02:56:29;100840.56;;;-2.20;79.87
77147;BME280;66121;52.584;9.694;2023-03-12T02:58:55;100840.06;;;-2.22;80.49
77147;BME280;66121;52.584;9.694;2023-03-12T03:01:20;100839.75;;;-2.02;79.23
77147;BME280;66121;52.584;9.694;2023-03-12T03:03:46;100839.03;;;-1.94;78.95
77147;BME280;66121;52.584;9.694;2023-03-12T03:06:12;100835.50;;;-2.08;79.23
77147;BME280;66121;52.584;9.694;2023-03-12T03:08:38;100838.78;;;-2.11;79.33
77147;BME280;66121;52.584;9.694;2023-03-12T03:11:04;100840.00;;;-2.17;80.96
77147;BME280;66121;52.584;9.694;2023-03-12T03:13:30;100830.03;;;-2.22;79.97
77147;BME280;66121;52.584;9.694;2023-03-12T03:15:55;100833.94;;;-2.28;80.70
77147;BME280;66121;52.584;9.694;2023-03-12T03:18:24;100842.28;;;-2.43;79.10
77147;BME280;66121;52.584;9.694;2023-03-12T03:21:01;100833.72;;;-2.50;79.82
77147;BME280;66121;52.584;9.694;2023-03-12T03:23:26;100835.84;;;-2.47;80.13
77147;BME280;66121;52.584;9.694;2023-03-12T03:25:52;100835.31;;;-2.49;80.07
77147;BME280;66121;52.584;9.694;2023-03-12T03:28:19;100837.00;;;-2.53;81.19
77147;BME280;66121;52.584;9.694;2023-03-12T03:30:45;100840.94;;;-2.45;81.84
77147;BME280;66121;52.584;9.694;2023-03-12T03:33:10;100827.13;;;-2.44;81.13
77147;BME280;66121;52.584;9.694;2023-03-12T03:35:36;100817.53;;;-2.50;81.52
77147;BME280;66121;52.584;9.694;2023-03-12T03:38:01;100829.09;;;-2.31;81.90
77147;BME280;66121;52.584;9.694;2023-03-12T03:40:26;100836.91;;;-2.11;80.27
77147;BME280;66121;52.584;9.694;2023-03-12T03:42:52;100818.69;;;-2.05;79.06
77147;BME280;66121;52.584;9.694;2023-03-12T03:45:17;100827.81;;;-2.01;80.55
77147;BME280;66121;52.584;9.694;2023-03-12T03:47:44;100830.81;;;-2.03;80.69
77147;BME280;66121;52.584;9.694;2023-03-12T03:50:11;100828.22;;;-1.94;79.64
77147;BME280;66121;52.584;9.694;2023-03-12T03:52:37;100824.03;;;-2.00;80.40
77147;BME280;66121;52.584;9.694;2023-03-12T03:55:02;100814.47;;;-2.11;80.42
77147;BME280;66121;52.584;9.694;2023-03-12T03:57:28;100835.72;;;-2.05;80.93
77147;BME280;66121;52.584;9.694;2023-03-12T03:59:53;100835.56;;;-1.94;79.06
77147;BME280;66121;52.584;9.694;2023-03-12T04:02:19;100820.53;;;-1.87;79.54
77147;BME280;66121;52.584;9.694;2023-03-12T04:04:45;100828.03;;;-1.98;78.93
77147;BME280;66121;52.584;9.694;2023-03-12T04:07:10;100838.63;;;-2.01;80.07
77147;BME280;66121;52.584;9.694;2023-03-12T04:09:36;100832.41;;;-2.02;79.52
77147;BME280;66121;52.584;9.694;2023-03-12T04:12:01;100826.13;;;-1.97;79.27
77147;BME280;66121;52.584;9.694;2023-03-12T04:14:26;100834.91;;;-2.05;80.69
77147;BME280;66121;52.584;9.694;2023-03-12T04:16:52;100831.06;;;-2.18;79.63
77147;BME280;66121;52.584;9.694;2023-03-12T04:19:17;100834.19;;;-2.11;81.26
77147;BME280;66121;52.584;9.694;2023-03-12T04:21:42;100828.13;;;-2.21;80.09
77147;BME280;66121;52.584;9.694;2023-03-12T04:24:12;100833.84;;;-2.23;80.48
77147;BME280;66121;52.584;9.694;2023-03-12T04:26:38;100817.88;;;-2.38;81.18
77147;BME280;66121;52.584;9.694;2023-03-12T04:29:03;100838.03;;;-2.30;81.28
77147;BME280;66121;52.584;9.694;2023-03-12T04:31:29;100829.59;;;-2.29;80.69
77147;BME280;66121;52.584;9.694;2023-03-12T04:33:54;100844.50;;;-2.31;81.10
77147;BME280;66121;52.584;9.694;2023-03-12T04:36:19;100828.59;;;-2.33;80.31
77147;BME280;66121;52.584;9.694;2023-03-12T04:38:45;100835.25;;;-2.44;80.90
77147;BME280;66121;52.584;9.694;2023-03-12T04:41:12;100828.25;;;-2.45;81.15
77147;BME280;66121;52.584;9.694;2023-03-12T04:43:38;100829.50;;;-2.37;80.62
77147;BME280;66121;52.584;9.694;2023-03-12T04:46:03;100830.97;;;-2.45;80.75
77147;BME280;66121;52.584;9.694;2023-03-12T04:48:29;100830.88;;;-2.40;80.62
77147;BME280;66121;52.584;9.694;2023-03-12T04:50:54;100830.16;;;-2.45;80.08
77147;BME280;66121;52.584;9.694;2023-03-12T04:53:20;100828.53;;;-2.46;80.64
77147;BME280;66121;52.584;9.694;2023-03-12T04:55:46;100813.50;;;-2.52;80.66
77147;BME280;66121;52.584;9.694;2023-03-12T04:58:11;100828.03;;;-2.48;82.15
77147;BME280;66121;52.584;9.694;2023-03-12T05:00:38;100825.31;;;-2.48;80.93
77147;BME280;66121;52.584;9.694;2023-03-12T05:03:04;100821.38;;;-2.56;81.17
77147;BME280;66121;52.584;9.694;2023-03-12T05:05:29;100826.44;;;-2.49;81.20
77147;BME280;66121;52.584;9.694;2023-03-12T05:07:54;100822.44;;;-2.52;80.99
77147;BME280;66121;52.584;9.694;2023-03-12T05:10:19;100825.97;;;-2.56;82.49
77147;BME280;66121;52.584;9.694;2023-03-12T05:12:45;100822.28;;;-2.61;81.67
77147;BME280;66121;52.584;9.694;2023-03-12T05:15:10;100826.13;;;-2.67;80.81
77147;BME280;66121;52.584;9.694;2023-03-12T05:17:36;100822.34;;;-2.66;81.96
77147;BME280;66121;52.584;9.694;2023-03-12T05:20:01;100817.88;;;-2.56;80.23
77147;BME280;66121;52.584;9.694;2023-03-12T05:22:28;100817.94;;;-2.62;79.82
77147;BME280;66121;52.584;9.694;2023-03-12T05:24:53;100815.31;;;-2.67;80.62
77147;BME280;66121;52.584;9.694;2023-03-12T05:27:19;100814.97;;;-2.79;82.29
77147;BME280;66121;52.584;9.694;2023-03-12T05:29:44;100811.97;;;-2.77;81.11
77147;BME280;66121;52.584;9.694;2023-03-12T05:32:09;100805.25;;;-2.80;81.42
77147;BME280;66121;52.584;9.694;2023-03-12T05:34:34;100808.59;;;-2.69;82.44
77147;BME280;66121;52.584;9.694;2023-03-12T05:37:00;100797.44;;;-2.81;81.98
77147;BME280;66121;52.584;9.694;2023-03-12T05:39:26;100808.25;;;-2.63;81.90
77147;BME280;66121;52.584;9.694;2023-03-12T05:41:52;100804.31;;;-2.70;81.23
77147;BME280;66121;52.584;9.694;2023-03-12T05:44:23;100805.69;;;-2.73;81.43
77147;BME280;66121;52.584;9.694;2023-03-12T05:46:49;100796.28;;;-2.75;81.18
77147;BME280;66121;52.584;9.694;2023-03-12T05:49:14;100785.06;;;-2.82;82.60
77147;BME280;66121;52.584;9.694;2023-03-12T05:51:40;100788.13;;;-2.70;81.88
77147;BME280;66121;52.584;9.694;2023-03-12T05:54:07;100788.38;;;-2.72;82.06
77147;BME280;66121;52.584;9.694;2023-03-12T05:56:35;100784.19;;;-2.78;83.33
77147;BME280;66121;52.584;9.694;2023-03-12T05:59:00;100780.97;;;-2.80;83.08
77147;BME280;66121;52.584;9.694;2023-03-12T06:01:27;100776.19;;;-2.69;83.68
77147;BME280;66121;52.584;9.694;2023-03-12T06:03:53;100775.03;;;-2.63;82.31
77147;BME280;66121;52.584;9.694;2023-03-12T06:06:19;100763.16;;;-2.62;83.53
77147;BME280;66121;52.584;9.694;2023-03-12T06:08:46;100774.16;;;-2.40;83.96
77147;BME280;66121;52.584;9.694;2023-03-12T06:11:12;100774.16;;;-2.40;83.11
77147;BME280;66121;52.584;9.694;2023-03-12T06:13:37;100769.97;;;-2.32;83.62
77147;BME280;66121;52.584;9.694;2023-03-12T06:16:03;100767.13;;;-2.09;82.50
77147;BME280;66121;52.584;9.694;2023-03-12T06:18:31;100761.66;;;-1.90;81.13
77147;BME280;66121;52.584;9.694;2023-03-12T06:21:13;100757.78;;;-1.43;79.97
77147;BME280;66121;52.584;9.694;2023-03-12T06:23:40;100758.66;;;-1.20;76.74
77147;BME280;66121;52.584;9.694;2023-03-12T06:26:05;100753.28;;;-0.98;76.75
77147;BME280;66121;52.584;9.694;2023-03-12T06:28:32;100743.34;;;-0.89;76.52
77147;BME280;66121;52.584;9.694;2023-03-12T06:30:57;100754.66;;;-0.87;76.34
77147;BME280;66121;52.584;9.694;2023-03-12T06:33:22;100752.63;;;-0.82;76.88
77147;BME280;66121;52.584;9.694;2023-03-12T06:35:48;100752.25;;;-0.75;76.37
77147;BME280;66121;52.584;9.694;2023-03-12T06:38:13;100736.69;;;-0.83;76.14
77147;BME280;66121;52.584;9.694;2023-03-12T06:40:38;100748.41;;;-0.74;76.92
77147;BME280;66121;52.584;9.694;2023-03-12T06:43:04;100746.00;;;-0.76;77.77
77147;BME280;66121;52.584;9.694;2023-03-12T06:45:29;100750.69;;;-0.68;76.82
77147;BME280;66121;52.584;9.694;2023-03-12T06:47:54;100754.41;;;-0.63;76.58
77147;BME280;66121;52.584;9.694;2023-03-12T06:50:20;100745.94;;;-0.40;74.72
77147;BME280;66121;52.584;9.694;2023-03-12T06:52:45;100754.28;;;-0.36;73.74
77147;BME280;66121;52.584;9.694;2023-03-12T06:55:10;100754.22;;;-0.23;74.16
77147;BME280;66121;52.584;9.694;2023-03-12T06:57:36;100747.34;;;0.02;72.20
77147;BME280;66121;52.584;9.694;2023-03-12T07:00:02;100747.72;;;0.18;73.32
77147;BME280;66121;52.584;9.694;2023-03-12T07:02:28;100750.69;;;0.38;72.42
77147;BME280;66121;52.584;9.694;2023-03-12T07:04:53;100741.25;;;0.27;73.15
77147;BME280;66121;52.584;9.694;2023-03-12T07:07:18;100741.84;;;0.24;73.41
77147;BME280;66121;52.584;9.694;2023-03-12T07:09:44;100746.81;;;0.22;73.29
77147;BME280;66121;52.584;9.694;2023-03-12T07:12:09;100735.75;;;0.19;73.21
77147;BME280;66121;52.584;9.694;2023-03-12T07:14:34;100732.56;;;0.17;73.06
77147;BME280;66121;52.584;9.694;2023-03-12T07:17:00;100729.84;;;0.17;72.63
77147;BME280;66121;52.584;9.694;2023-03-12T07:19:27;100716.69;;;0.32;73.47
77147;BME280;66121;52.584;9.694;2023-03-12T07:21:54;100729.00;;;0.47;73.46
77147;BME280;66121;52.584;9.694;2023-03-12T07:24:19;100723.78;;;0.59;73.31
77147;BME280;66121;52.584;9.694;2023-03-12T07:26:45;100722.94;;;0.50;72.40
77147;BME280;66121;52.584;9.694;2023-03-12T07:29:10;100728.22;;;0.55;72.05
77147;BME280;66121;52.584;9.694;2023-03-12T07:31:36;100724.13;;;0.75;72.34
77147;BME280;66121;52.584;9.694;2023-03-12T07:34:01;100726.69;;;0.88;70.88
77147;BME280;66121;52.584;9.694;2023-03-12T07:36:27;100717.59;;;0.93;69.90
77147;BME280;66121;52.584;9.694;2023-03-12T07:38:53;100732.16;;;1.22;70.27
77147;BME280;66121;52.584;9.694;2023-03-12T07:41:19;100726.72;;;1.22;70.09
77147;BME280;66121;52.584;9.694;2023-03-12T07:43:44;100712.19;;;1.18;69.53
77147;BME280;66121;52.584;9.694;2023-03-12T07:46:09;100719.22;;;1.37;67.56
77147;BME280;66121;52.584;9.694;2023-03-12T07:48:34;100723.06;;;1.44;67.88
77147;BME280;66121;52.584;9.694;2023-03-12T07:51:00;100724.81;;;1.40;67.30
77147;BME280;66121;52.584;9.694;2023-03-12T07:53:25;100733.28;;;1.47;66.27
77147;BME280;66121;52.584;9.694;2023-03-12T07:55:50;100733.75;;;1.58;67.10
77147;BME280;66121;52.584;9.694;2023-03-12T07:58:16;100728.22;;;2.01;65.50
77147;BME280;66121;52.584;9.694;2023-03-12T08:00:41;100730.13;;;2.09;65.73
77147;BME280;66121;52.584;9.694;2023-03-12T08:03:06;100722.38;;;2.28;65.98
77147;BME280;66121;52.584;9.694;2023-03-12T08:05:32;100719.16;;;2.34;63.89
77147;BME280;66121;52.584;9.694;2023-03-12T08:07:57;100702.00;;;1.96;64.74
77147;BME280;66121;52.584;9.694;2023-03-12T08:10:22;100705.00;;;2.03;65.03
77147;BME280;66121;52.584;9.694;2023-03-12T08:12:48;100686.84;;;2.24;63.21
77147;BME280;66121;52.584;9.694;2023-03-12T08:15:14;100691.47;;;2.24;64.13
77147;BME280;66121;52.584;9.694;2023-03-12T08:17:39;100685.84;;;2.29;66.24
77147;BME280;66121;52.584;9.694;2023-03-12T08:20:05;100693.97;;;2.37;65.75
77147;BME280;66121;52.584;9.694;2023-03-12T08:22:34;100698.31;;;2.30;65.61
77147;BME280;66121;52.584;9.694;2023-03-12T08:24:59;100681.72;;;2.52;64.74
77147;BME280;66121;52.584;9.694;2023-03-12T08:27:24;100684.91;;;2.25;63.97
77147;BME280;66121;52.584;9.694;2023-03-12T08:29:49;100692.09;;;1.91;64.96
77147;BME280;66121;52.584;9.694;2023-03-12T08:32:15;100702.97;;;1.91;66.30
77147;BME280;66121;52.584;9.694;2023-03-12T08:34:40;100697.03;;;1.98;66.40
77147;BME280;66121;52.584;9.694;2023-03-12T08:37:05;100696.84;;;1.94;65.23
77147;BME280;66121;52.584;9.694;2023-03-12T08:39:31;100695.41;;;2.06;65.48
77147;BME280;66121;52.584;9.694;2023-03-12T08:41:57;100711.84;;;2.18;66.68
77147;BME280;66121;52.584;9.694;2023-03-12T08:44:23;100706.91;;;2.11;64.57
77147;BME280;66121;52.584;9.694;2023-03-12T08:46:49;100703.03;;;2.21;65.11
77147;BME280;66121;52.584;9.694;2023-03-12T08:49:14;100707.03;;;2.15;65.43
77147;BME280;66121;52.584;9.694;2023-03-12T08:51:40;100711.44;;;1.99;65.48
77147;BME280;66121;52.584;9.694;2023-03-12T08:54:05;100716.47;;;2.17;66.55
77147;BME280;66121;52.584;9.694;2023-03-12T08:56:31;100717.81;;;2.03;66.23
77147;BME280;66121;52.584;9.694;2023-03-12T08:58:57;100716.72;;;1.95;65.85
77147;BME280;66121;52.584;9.694;2023-03-12T09:01:23;100703.75;;;1.92;66.95
77147;BME280;66121;52.584;9.694;2023-03-12T09:03:48;100715.78;;;1.82;65.99
77147;BME280;66121;52.584;9.694;2023-03-12T09:06:15;100711.22;;;2.12;65.03
77147;BME280;66121;52.584;9.694;2023-03-12T09:08:42;100708.53;;;2.41;65.30
77147;BME280;66121;52.584;9.694;2023-03-12T09:11:09;100711.28;;;2.33;65.52
77147;BME280;66121;52.584;9.694;2023-03-12T09:13:34;100704.50;;;2.47;65.06
77147;BME280;66121;52.584;9.694;2023-03-12T09:16:01;100697.38;;;2.84;64.69
77147;BME280;66121;52.584;9.694;2023-03-12T09:18:27;100690.31;;;3.24;63.17
77147;BME280;66121;52.584;9.694;2023-03-12T09:20:53;100687.94;;;3.23;63.60
77147;BME280;66121;52.584;9.694;2023-03-12T09:23:19;100694.25;;;3.15;62.09
77147;BME280;66121;52.584;9.694;2023-03-12T09:25:45;100700.97;;;3.38;62.87
77147;BME280;66121;52.584;9.694;2023-03-12T09:28:10;100679.78;;;3.56;62.46
77147;BME280;66121;52.584;9.694;2023-03-12T09:30:36;100673.94;;;3.45;61.97
77147;BME280;66121;52.584;9.694;2023-03-12T09:33:01;100676.25;;;3.22;61.78
77147;BME280;66121;52.584;9.694;2023-03-12T09:35:27;100688.81;;;2.94;63.14
77147;BME280;66121;52.584;9.694;2023-03-12T09:37:52;100674.56;;;2.68;63.32
77147;BME280;66121;52.584;9.694;2023-03-12T09:40:23;100679.16;;;3.17;63.72
77147;BME280;66121;52.584;9.694;2023-03-12T09:42:51;100670.63;;;3.40;63.43
77147;BME280;66121;52.584;9.694;2023-03-12T09:45:26;100662.78;;;3.71;61.68
77147;BME280;66121;52.584;9.694;2023-03-12T09:48:00;100666.00;;;4.09;60.55
77147;BME280;66121;52.584;9.694;2023-03-12T09:50:38;100665.91;;;4.06;59.70
77147;BME280;66121;52.584;9.694;2023-03-12T09:53:19;100651.22;;;4.22;59.96
77147;BME280;66121;52.584;9.694;2023-03-12T09:55:51;100652.84;;;4.11;58.79
77147;BME280;66121;52.584;9.694;2023-03-12T09:58:25;100659.31;;;4.43;59.70
77147;BME280;66121;52.584;9.694;2023-03-12T10:06:19;100634.97;;;4.14;60.14
77147;BME280;66121;52.584;9.694;2023-03-12T10:09:24;100627.19;;;3.91;59.31
77147;BME280;66121;52.584;9.694;2023-03-12T10:18:07;100621.81;;;5.07;57.80
77147;BME280;66121;52.584;9.694;2023-03-12T10:20:50;100605.50;;;4.71;57.95
77147;BME280;66121;52.584;9.694;2023-03-12T10:26:25;100584.47;;;4.99;57.96
77147;BME280;66121;52.584;9.694;2023-03-12T10:29:12;100577.66;;;5.21;57.66
77147;BME280;66121;52.584;9.694;2023-03-12T10:32:04;100583.59;;;5.23;57.06
77147;BME280;66121;52.584;9.694;2023-03-12T10:34:45;100572.00;;;4.46;58.65
77147;BME280;66121;52.584;9.694;2023-03-12T10:37:37;100561.00;;;4.71;60.13
77147;BME280;66121;52.584;9.694;2023-03-12T10:40:04;100552.00;;;4.70;58.29
77147;BME280;66121;52.584;9.694;2023-03-12T10:42:31;100546.06;;;4.80;58.99
77147;BME280;66121;52.584;9.694;2023-03-12T10:44:59;100555.22;;;4.60;58.67
77147;BME280;66121;52.584;9.694;2023-03-12T10:47:37;100547.63;;;4.81;60.30
77147;BME280;66121;52.584;9.694;2023-03-12T10:50:34;100531.72;;;4.99;58.42
77147;BME280;66121;52.584;9.694;2023-03-12T10:53:29;100538.31;;;5.26;57.95
77147;BME280;66121;52.584;9.694;2023-03-12T10:58:41;100542.63;;;5.11;57.97
77147;BME280;66121;52.584;9.694;2023-03-12T11:01:26;100550.63;;;5.04;58.56
77147;BME280;66121;52.584;9.694;2023-03-12T11:04:07;100542.88;;;4.78;56.64
77147;BME280;66121;52.584;9.694;2023-03-12T11:06:33;100543.06;;;5.29;58.31
77147;BME280;66121;52.584;9.694;2023-03-12T11:09:14;100534.88;;;4.85;56.97
77147;BME280;66121;52.584;9.694;2023-03-12T11:11:41;100539.84;;;4.68;55.93
77147;BME280;66121;52.584;9.694;2023-03-12T11:14:18;100531.25;;;4.53;56.41
77147;BME280;66121;52.584;9.694;2023-03-12T11:16:44;100547.88;;;4.76;58.27
77147;BME280;66121;52.584;9.694;2023-03-12T11:19:24;100543.91;;;4.46;57.52
77147;BME280;66121;52.584;9.694;2023-03-12T11:22:09;100525.84;;;4.17;59.05
77147;BME280;66121;52.584;9.694;2023-03-12T11:24:35;100519.91;;;4.27;60.11
77147;BME280;66121;52.584;9.694;2023-03-12T11:27:04;100513.41;;;4.32;59.60
77147;BME280;66121;52.584;9.694;2023-03-12T11:29:47;100514.09;;;4.29;61.01
77147;BME280;66121;52.584;9.694;2023-03-12T11:32:26;100516.06;;;4.04;63.19
77147;BME280;66121;52.584;9.694;2023-03-12T11:34:54;100508.16;;;3.75;65.90
77147;BME280;66121;52.584;9.694;2023-03-12T11:43:37;100491.22;;;3.45;70.31
77147;BME280;66121;52.584;9.694;2023-03-12T11:49:13;100496.88;;;3.64;72.11
77147;BME280;66121;52.584;9.694;2023-03-12T11:52:05;100497.03;;;3.56;72.01
77147;BME280;66121;52.584;9.694;2023-03-12T12:00:25;100476.44;;;3.70;72.66
77147;BME280;66121;52.584;9.694;2023-03-12T12:03:06;100468.94;;;3.19;73.52
77147;BME280;66121;52.584;9.694;2023-03-12T12:10:59;100465.72;;;2.72;77.93
77147;BME280;66121;52.584;9.694;2023-03-12T12:13:49;100463.75;;;2.81;79.19
77147;BME280;66121;52.584;9.694;2023-03-12T12:24:38;100450.03;;;3.02;80.50
77147;BME280;66121;52.584;9.694;2023-03-12T12:27:20;100444.38;;;2.62;81.92
77147;BME280;66121;52.584;9.694;2023-03-12T12:30:26;100437.63;;;2.47;83.05
77147;BME280;66121;52.584;9.694;2023-03-12T12:35:44;100430.75;;;2.29;84.68
77147;BME280;66121;52.584;9.694;2023-03-12T12:38:57;100419.94;;;2.21;86.07
77147;BME280;66121;52.584;9.694;2023-03-12T12:41:29;100410.56;;;2.10;86.26
77147;BME280;66121;52.584;9.694;2023-03-12T12:44:03;100406.13;;;2.05;86.85
77147;BME280;66121;52.584;9.694;2023-03-12T12:46:33;100401.84;;;2.04;87.38
77147;BME280;66121;52.584;9.694;2023-03-12T12:49:03;100398.81;;;2.18;86.95
77147;BME280;66121;52.584;9.694;2023-03-12T12:51:35;100390.47;;;2.23;86.81
77147;BME280;66121;52.584;9.694;2023-03-12T12:54:19;100379.75;;;2.38;87.14
77147;BME280;66121;52.584;9.694;2023-03-12T12:56:52;100376.44;;;2.33;86.67
77147;BME280;66121;52.584;9.694;2023-03-12T12:59:27;100379.78;;;2.18;87.57
77147;BME280;66121;52.584;9.694;2023-03-12T13:01:57;100374.53;;;2.13;87.97
77147;BME280;66121;52.584;9.694;2023-03-12T13:04:26;100368.69;;;2.02;88.99
77147;BME280;66121;52.584;9.694;2023-03-12T13:09:41;100378.94;;;2.38;87.91
77147;BME280;66121;52.584;9.694;2023-03-12T13:14:47;100370.56;;;2.10;89.09
77147;BME280;66121;52.584;9.694;2023-03-12T13:17:35;100359.06;;;2.05;89.54
77147;BME280;66121;52.584;9.694;2023-03-12T13:20:23;100353.91;;;2.12;89.11
77147;BME280;66121;52.584;9.694;2023-03-12T13:30:55;100341.09;;;2.12;89.77
77147;BME280;66121;52.584;9.694;2023-03-12T13:41:34;100330.78;;;2.18;89.81
77147;BME280;66121;52.584;9.694;2023-03-12T13:47:21;100305.88;;;2.28;90.05
77147;BME280;66121;52.584;9.694;2023-03-12T13:49:53;100310.06;;;2.25;89.87
77147;BME280;66121;52.584;9.694;2023-03-12T13:52:30;100310.41;;;2.24;90.06
77147;BME280;66121;52.584;9.694;2023-03-12T13:57:59;100311.53;;;2.23;90.55
77147;BME280;66121;52.584;9.694;2023-03-12T14:03:27;100314.19;;;2.43;90.35
77147;BME280;66121;52.584;9.694;2023-03-12T14:06:11;100300.13;;;2.41;90.31
77147;BME280;66121;52.584;9.694;2023-03-12T14:16:39;100309.41;;;2.40;90.73
77147;BME280;66121;52.584;9.694;2023-03-12T14:19:06;100306.47;;;2.57;90.20
77147;BME280;66121;52.584;9.694;2023-03-12T14:21:37;100306.56;;;2.37;91.38
77147;BME280;66121;52.584;9.694;2023-03-12T14:24:05;100297.94;;;2.35;90.99
77147;BME280;66121;52.584;9.694;2023-03-12T14:26:34;100296.81;;;2.36;91.91
77147;BME280;66121;52.584;9.694;2023-03-12T14:29:07;100294.91;;;2.48;91.57
77147;BME280;66121;52.584;9.694;2023-03-12T14:31:34;100300.56;;;2.43;91.40
77147;BME280;66121;52.584;9.694;2023-03-12T14:34:05;100299.19;;;2.49;91.77